createdAt,value
2024-01-21T00:00:22.733Z,-3.48
2024-01-21T00:02:50.282Z,-3.52
2024-01-21T00:05:17.141Z,-3.56
2024-01-21T00:07:43.804Z,-3.63
2024-01-21T00:10:13.417Z,-3.67
2024-01-21T00:12:40.403Z,-3.68
2024-01-21T00:15:07.848Z,-3.70
2024-01-21T00:17:34.475Z,-3.73
2024-01-21T00:20:01.056Z,-3.75
2024-01-21T00:22:27.564Z,-3.79
2024-01-21T00:24:54.200Z,-3.81
2024-01-21T00:27:20.847Z,-3.83
2024-01-21T00:29:47.451Z,-3.83
2024-01-21T00:32:14.196Z,-3.85
2024-01-21T00:34:41.205Z,-3.88
2024-01-21T00:37:07.721Z,-3.92
2024-01-21T00:39:34.731Z,-3.95
2024-01-21T00:42:08.111Z,-3.96
2024-01-21T00:44:37.405Z,-3.99
2024-01-21T00:47:05.156Z,-4.01
2024-01-21T00:49:33.071Z,-4.03
2024-01-21T00:52:00.212Z,-4.05
2024-01-21T00:54:26.819Z,-4.07
2024-01-21T00:56:53.661Z,-4.08
2024-01-21T00:59:20.456Z,-4.08
2024-01-21T01:01:47.110Z,-4.07
2024-01-21T01:04:14.245Z,-4.06
2024-01-21T01:06:41.873Z,-4.07
2024-01-21T01:09:09.172Z,-4.07
2024-01-21T01:11:36.909Z,-4.08
2024-01-21T01:14:04.119Z,-4.07
2024-01-21T01:16:30.710Z,-4.07
2024-01-21T01:18:58.874Z,-4.05
2024-01-21T01:21:25.733Z,-4.03
2024-01-21T01:23:52.304Z,-4.02
2024-01-21T01:26:20.095Z,-4.03
2024-01-21T01:28:46.768Z,-4.03
2024-01-21T01:31:20.533Z,-4.04
2024-01-21T01:33:47.901Z,-4.07
2024-01-21T01:36:15.558Z,-4.08
2024-01-21T01:38:43.976Z,-4.08
2024-01-21T01:41:11.134Z,-4.10
2024-01-21T01:43:38.105Z,-4.13
2024-01-21T01:46:07.508Z,-4.14
2024-01-21T01:48:34.795Z,-4.14
2024-01-21T01:51:05.517Z,-4.16
2024-01-21T01:53:34.394Z,-4.16
2024-01-21T01:56:01.698Z,-4.18
2024-01-21T01:58:29.224Z,-4.18
2024-01-21T02:00:57.644Z,-4.18
2024-01-21T02:03:25.751Z,-4.19
2024-01-21T02:05:52.978Z,-4.20
2024-01-21T02:08:19.903Z,-4.21
2024-01-21T02:10:47.365Z,-4.24
2024-01-21T02:13:14.143Z,-4.25
2024-01-21T02:15:40.849Z,-4.27
2024-01-21T02:18:07.692Z,-4.28
2024-01-21T02:20:36.122Z,-4.31
2024-01-21T02:23:05.349Z,-4.34
2024-01-21T02:25:31.879Z,-4.38
2024-01-21T02:27:58.535Z,-4.41
2024-01-21T02:30:25.175Z,-4.43
2024-01-21T02:32:51.888Z,-4.44
2024-01-21T02:35:18.457Z,-4.45
2024-01-21T02:37:45.007Z,-4.45
2024-01-21T02:40:11.877Z,-4.47
2024-01-21T02:42:38.641Z,-4.49
2024-01-21T02:45:06.008Z,-4.50
2024-01-21T02:47:32.630Z,-4.50
2024-01-21T02:49:59.565Z,-4.49
2024-01-21T02:52:26.463Z,-4.48
2024-01-21T02:54:53.056Z,-4.47
2024-01-21T02:57:19.959Z,-4.46
2024-01-21T02:59:46.516Z,-4.47
2024-01-21T03:02:13.060Z,-4.49
2024-01-21T03:04:40.315Z,-4.50
2024-01-21T03:07:06.852Z,-4.51
2024-01-21T03:09:33.465Z,-4.52
2024-01-21T03:12:00.303Z,-4.53
2024-01-21T03:14:26.801Z,-4.55
2024-01-21T03:16:54.923Z,-4.56
2024-01-21T03:19:21.662Z,-4.57
2024-01-21T03:21:48.374Z,-4.57
2024-01-21T03:24:15.279Z,-4.57
2024-01-21T03:26:42.317Z,-4.58
2024-01-21T03:29:09.055Z,-4.59
2024-01-21T03:31:35.656Z,-4.59
2024-01-21T03:34:04.903Z,-4.58
2024-01-21T03:39:22.954Z,-4.53
2024-01-21T03:41:50.247Z,-4.50
2024-01-21T03:44:16.851Z,-4.46
2024-01-21T03:46:43.424Z,-4.43
2024-01-21T03:49:10.280Z,-4.39
2024-01-21T03:51:36.896Z,-4.37
2024-01-21T03:54:03.864Z,-4.35
2024-01-21T03:56:32.427Z,-4.34
2024-01-21T03:58:58.912Z,-4.34
2024-01-21T04:01:25.628Z,-4.35
2024-01-21T04:03:52.873Z,-4.34
2024-01-21T04:06:19.664Z,-4.33
2024-01-21T04:08:46.655Z,-4.32
2024-01-21T04:11:13.369Z,-4.29
2024-01-21T04:13:41.220Z,-4.27
2024-01-21T04:16:07.842Z,-4.26
2024-01-21T04:18:34.609Z,-4.24
2024-01-21T04:21:02.882Z,-4.23
2024-01-21T04:23:29.383Z,-4.21
2024-01-21T04:28:23.151Z,-4.24
2024-01-21T04:30:50.027Z,-4.27
2024-01-21T04:33:17.209Z,-4.31
2024-01-21T04:35:44.364Z,-4.33
2024-01-21T04:38:11.520Z,-4.33
2024-01-21T04:40:39.803Z,-4.35
2024-01-21T04:43:06.369Z,-4.35
2024-01-21T04:45:33.429Z,-4.35
2024-01-21T04:48:00.776Z,-4.31
2024-01-21T04:50:27.989Z,-4.28
2024-01-21T04:52:54.459Z,-4.26
2024-01-21T04:55:21.009Z,-4.28
2024-01-21T04:57:47.740Z,-4.32
2024-01-21T05:00:15.529Z,-4.38
2024-01-21T05:02:42.057Z,-4.42
2024-01-21T05:05:09.031Z,-4.48
2024-01-21T05:07:35.600Z,-4.57
2024-01-21T05:10:02.570Z,-4.66
2024-01-21T05:12:29.452Z,-4.75
2024-01-21T05:14:57.378Z,-4.83
2024-01-21T05:17:24.529Z,-4.92
2024-01-21T05:19:51.547Z,-5.01
2024-01-21T05:22:18.648Z,-5.07
2024-01-21T05:24:45.231Z,-5.13
2024-01-21T05:27:12.031Z,-5.16
2024-01-21T05:29:43.070Z,-5.18
2024-01-21T05:32:09.746Z,-5.22
2024-01-21T05:34:36.798Z,-5.26
2024-01-21T05:37:03.569Z,-5.29
2024-01-21T05:39:30.522Z,-5.35
2024-01-21T05:42:15.389Z,-5.44
2024-01-21T05:44:43.088Z,-5.52
2024-01-21T05:47:10.477Z,-5.56
2024-01-21T05:49:37.183Z,-5.62
2024-01-21T05:52:04.793Z,-5.69
2024-01-21T05:54:31.585Z,-5.76
2024-01-21T05:56:58.410Z,-5.83
2024-01-21T05:59:25.259Z,-5.89
2024-01-21T06:01:52.658Z,-5.94
2024-01-21T06:04:19.435Z,-5.98
2024-01-21T06:06:46.351Z,-5.96
2024-01-21T06:09:13.195Z,-5.91
2024-01-21T06:11:41.762Z,-5.87
2024-01-21T06:14:08.859Z,-5.84
2024-01-21T06:16:35.621Z,-5.78
2024-01-21T06:19:03.001Z,-5.72
2024-01-21T06:21:30.263Z,-5.67
2024-01-21T06:23:57.355Z,-5.61
2024-01-21T06:26:24.415Z,-5.56
2024-01-21T06:28:51.645Z,-5.52
2024-01-21T06:31:19.527Z,-5.46
2024-01-21T06:33:46.808Z,-5.42
2024-01-21T06:36:13.526Z,-5.38
2024-01-21T06:38:40.346Z,-5.34
2024-01-21T06:41:06.871Z,-5.29
2024-01-21T06:43:33.851Z,-5.24
2024-01-21T06:46:00.712Z,-5.18
2024-01-21T06:48:28.378Z,-5.14
2024-01-21T06:50:55.356Z,-5.13
2024-01-21T06:53:21.945Z,-5.10
2024-01-21T06:55:48.565Z,-5.10
2024-01-21T06:58:15.231Z,-5.12
2024-01-21T07:00:42.067Z,-5.11
2024-01-21T07:03:09.273Z,-5.09
2024-01-21T07:05:36.115Z,-5.08
2024-01-21T07:08:03.057Z,-5.07
2024-01-21T07:10:29.620Z,-5.10
2024-01-21T07:12:57.463Z,-5.13
2024-01-21T07:15:25.522Z,-5.16
2024-01-21T07:17:52.457Z,-5.18
2024-01-21T07:20:19.485Z,-5.18
2024-01-21T07:22:46.232Z,-5.18
2024-01-21T07:25:15.795Z,-5.20
2024-01-21T07:27:44.295Z,-5.22
2024-01-21T07:30:12.648Z,-5.21
2024-01-21T07:32:41.022Z,-5.20
2024-01-21T07:35:10.393Z,-5.18
2024-01-21T07:37:37.906Z,-5.15
2024-01-21T07:40:06.937Z,-5.10
2024-01-21T07:42:34.258Z,-5.06
2024-01-21T07:45:00.884Z,-5.03
2024-01-21T07:47:28.428Z,-4.99
2024-01-21T07:49:55.107Z,-4.95
2024-01-21T07:52:22.374Z,-4.90
2024-01-21T07:54:49.318Z,-4.86
2024-01-21T07:57:15.891Z,-4.77
2024-01-21T07:59:43.081Z,-4.70
2024-01-21T08:02:10.145Z,-4.65
2024-01-21T08:04:37.582Z,-4.58
2024-01-21T08:07:04.777Z,-4.54
2024-01-21T08:09:32.502Z,-4.46
2024-01-21T08:11:59.154Z,-4.40
2024-01-21T08:14:26.103Z,-4.34
2024-01-21T08:16:53.299Z,-4.30
2024-01-21T08:19:21.890Z,-4.25
2024-01-21T08:21:48.693Z,-4.22
2024-01-21T08:24:15.706Z,-4.22
2024-01-21T08:26:42.842Z,-4.24
2024-01-21T08:29:09.364Z,-4.26
2024-01-21T08:31:43.953Z,-4.28
2024-01-21T08:34:10.974Z,-4.28
2024-01-21T08:36:38.821Z,-4.24
2024-01-21T08:39:06.608Z,-4.22
2024-01-21T08:41:36.002Z,-4.20
2024-01-21T08:44:05.884Z,-4.21
2024-01-21T08:46:32.433Z,-4.19
2024-01-21T08:49:00.149Z,-4.14
2024-01-21T08:51:26.901Z,-4.07
2024-01-21T08:53:58.201Z,-3.98
2024-01-21T08:56:26.866Z,-3.90
2024-01-21T08:58:54.683Z,-3.85
2024-01-21T09:01:22.566Z,-3.78
2024-01-21T09:03:49.967Z,-3.69
2024-01-21T09:06:17.004Z,-3.59
2024-01-21T09:08:44.098Z,-3.51
2024-01-21T09:11:10.826Z,-3.47
2024-01-21T09:13:37.514Z,-3.44
2024-01-21T09:16:04.435Z,-3.42
2024-01-21T09:18:32.522Z,-3.42
2024-01-21T09:21:00.070Z,-3.41
2024-01-21T09:23:27.277Z,-3.38
2024-01-21T09:25:53.933Z,-3.34
2024-01-21T09:28:20.755Z,-3.31
2024-01-21T09:30:47.993Z,-3.29
2024-01-21T09:33:15.103Z,-3.26
2024-01-21T09:35:42.984Z,-3.25
2024-01-21T09:38:12.017Z,-3.27
2024-01-21T09:40:39.179Z,-3.25
2024-01-21T09:43:06.081Z,-3.20
2024-01-21T09:45:35.509Z,-3.14
2024-01-21T09:48:05.089Z,-3.09
2024-01-21T09:50:32.726Z,-3.06
2024-01-21T09:52:59.291Z,-3.04
2024-01-21T09:55:26.250Z,-3.03
2024-01-21T09:57:54.391Z,-3.04
2024-01-21T10:00:21.977Z,-3.03
2024-01-21T10:02:51.235Z,-3.01
2024-01-21T10:05:17.995Z,-2.98
2024-01-21T10:07:45.436Z,-2.94
2024-01-21T10:10:13.925Z,-2.97
2024-01-21T10:12:42.107Z,-2.98
2024-01-21T10:15:13.045Z,-2.97
2024-01-21T10:17:39.672Z,-2.94
2024-01-21T10:20:14.219Z,-2.90
2024-01-21T10:22:42.852Z,-2.87
2024-01-21T10:25:13.291Z,-2.86
2024-01-21T10:27:39.899Z,-2.84
2024-01-21T10:30:09.288Z,-2.79
2024-01-21T10:32:36.085Z,-2.74
2024-01-21T10:35:03.314Z,-2.67
2024-01-21T10:37:32.104Z,-2.57
2024-01-21T10:40:01.261Z,-2.46
2024-01-21T10:42:29.745Z,-2.39
2024-01-21T10:44:57.342Z,-2.32
2024-01-21T10:47:25.895Z,-2.28
2024-01-21T10:49:52.590Z,-2.27
2024-01-21T10:52:21.096Z,-2.29
2024-01-21T10:54:49.079Z,-2.31
2024-01-21T10:57:16.821Z,-2.34
2024-01-21T10:59:45.174Z,-2.36
2024-01-21T11:02:12.169Z,-2.33
2024-01-21T11:04:38.890Z,-2.26
2024-01-21T11:07:09.625Z,-2.19
2024-01-21T11:09:38.232Z,-2.14
2024-01-21T11:12:06.132Z,-2.11
2024-01-21T11:14:37.836Z,-2.01
2024-01-21T11:17:11.503Z,-1.84
2024-01-21T11:19:50.663Z,-1.72
2024-01-21T11:22:21.463Z,-1.62
2024-01-21T11:24:48.214Z,-1.57
2024-01-21T11:27:15.722Z,-1.52
2024-01-21T11:29:42.996Z,-1.46
2024-01-21T11:32:12.287Z,-1.32
2024-01-21T11:34:42.606Z,-1.08
2024-01-21T11:37:15.034Z,-0.74
2024-01-21T11:39:43.422Z,-0.37
2024-01-21T11:42:11.338Z,-0.02
2024-01-21T11:44:39.555Z,0.34
2024-01-21T11:47:07.706Z,1.01
2024-01-21T11:49:35.776Z,1.93
2024-01-21T11:52:07.313Z,3.57
2024-01-21T11:54:38.361Z,5.93
2024-01-21T11:57:08.987Z,8.04
2024-01-21T11:59:36.984Z,9.32
2024-01-21T12:02:08.880Z,10.61
2024-01-21T12:04:36.125Z,9.89
2024-01-21T12:07:04.355Z,8.80
2024-01-21T12:09:32.292Z,7.69
2024-01-21T12:11:59.367Z,6.77
2024-01-21T12:14:26.818Z,6.12
2024-01-21T12:16:55.306Z,5.77
2024-01-21T12:19:24.804Z,5.86
2024-01-21T12:21:52.893Z,6.10
2024-01-21T12:24:24.048Z,6.51
2024-01-21T12:26:52.003Z,6.87
2024-01-21T12:29:21.240Z,7.31
2024-01-21T12:31:50.462Z,7.59
2024-01-21T12:34:19.988Z,7.72
2024-01-21T12:36:48.084Z,8.20
2024-01-21T12:39:17.517Z,8.76
2024-01-21T12:41:44.345Z,9.18
2024-01-21T12:44:11.051Z,9.53
2024-01-21T12:46:39.386Z,9.63
2024-01-21T12:49:07.365Z,9.53
2024-01-21T12:51:36.549Z,9.28
2024-01-21T12:54:03.635Z,8.88
2024-01-21T12:56:30.301Z,8.33
2024-01-21T12:58:57.137Z,7.77
2024-01-21T13:01:24.694Z,7.46
2024-01-21T13:03:54.266Z,7.46
2024-01-21T13:06:22.242Z,7.75
2024-01-21T13:08:49.933Z,8.01
2024-01-21T13:11:16.859Z,8.32
2024-01-21T13:13:43.429Z,8.51
2024-01-21T13:16:11.105Z,8.66
2024-01-21T13:18:38.965Z,8.75
2024-01-21T13:21:08.609Z,8.73
2024-01-21T13:23:35.778Z,8.92
2024-01-21T13:26:03.006Z,9.17
2024-01-21T13:28:39.863Z,9.65
2024-01-21T13:31:07.036Z,10.03
2024-01-21T13:33:34.249Z,10.41
2024-01-21T13:36:01.695Z,10.58
2024-01-21T13:38:33.921Z,10.53
2024-01-21T13:41:04.496Z,10.27
2024-01-21T13:43:32.411Z,10.03
2024-01-21T13:45:59.382Z,10.31
2024-01-21T13:48:26.151Z,10.41
2024-01-21T13:50:53.338Z,9.93
2024-01-21T13:53:20.112Z,9.43
2024-01-21T13:55:47.801Z,9.09
2024-01-21T13:58:18.467Z,8.96
2024-01-21T14:00:45.804Z,9.35
2024-01-21T14:03:13.729Z,9.65
2024-01-21T14:05:41.615Z,9.06
2024-01-21T14:08:08.548Z,8.39
2024-01-21T14:10:35.810Z,7.63
2024-01-21T14:13:03.520Z,6.89
2024-01-21T14:15:30.360Z,6.28
2024-01-21T14:17:57.756Z,5.79
2024-01-21T14:20:24.890Z,5.33
2024-01-21T14:22:51.978Z,4.80
2024-01-21T14:25:28.192Z,4.34
2024-01-21T14:27:55.881Z,3.96
2024-01-21T14:30:30.627Z,3.63
2024-01-21T14:32:59.045Z,3.38
2024-01-21T14:35:29.998Z,3.16
2024-01-21T14:37:59.006Z,2.90
2024-01-21T14:40:29.828Z,2.67
2024-01-21T14:42:58.629Z,2.51
2024-01-21T14:45:25.855Z,2.37
2024-01-21T14:47:53.934Z,2.24
2024-01-21T14:50:20.796Z,2.15
2024-01-21T14:52:49.249Z,2.07
2024-01-21T14:55:16.960Z,1.96
2024-01-21T14:57:45.948Z,1.88
2024-01-21T15:00:14.087Z,1.80
2024-01-21T15:02:41.160Z,1.72
2024-01-21T15:05:09.413Z,1.63
2024-01-21T15:07:37.018Z,1.58
2024-01-21T15:10:05.845Z,1.56
2024-01-21T15:12:33.328Z,1.51
2024-01-21T15:15:28.953Z,1.43
2024-01-21T15:17:55.918Z,1.33
2024-01-21T15:20:22.753Z,1.23
2024-01-21T15:22:49.417Z,1.14
2024-01-21T15:25:16.606Z,1.06
2024-01-21T15:27:43.235Z,0.99
2024-01-21T15:30:10.925Z,0.91
2024-01-21T15:32:39.208Z,0.86
2024-01-21T15:35:06.463Z,0.82
2024-01-21T15:37:33.563Z,0.78
2024-01-21T15:40:00.497Z,0.75
2024-01-21T15:42:27.628Z,0.74
2024-01-21T15:44:54.694Z,0.73
2024-01-21T15:47:21.489Z,0.73
2024-01-21T15:49:48.765Z,0.73
2024-01-21T15:52:16.139Z,0.71
2024-01-21T15:54:42.870Z,0.70
2024-01-21T15:57:10.254Z,0.71
2024-01-21T15:59:36.803Z,0.71
2024-01-21T16:02:04.539Z,0.70
2024-01-21T16:04:31.573Z,0.69
2024-01-21T16:06:58.354Z,0.69
2024-01-21T16:09:25.016Z,0.69
2024-01-21T16:11:52.454Z,0.67
2024-01-21T16:14:19.204Z,0.67
2024-01-21T16:16:47.920Z,0.67
2024-01-21T16:19:15.825Z,0.66
2024-01-21T16:21:43.077Z,0.66
2024-01-21T16:24:10.343Z,0.66
2024-01-21T16:26:36.978Z,0.67
2024-01-21T16:29:03.925Z,0.68
2024-01-21T16:31:32.112Z,0.69
2024-01-21T16:33:59.183Z,0.68
2024-01-21T16:36:27.034Z,0.70
2024-01-21T16:38:53.707Z,0.72
2024-01-21T16:41:20.466Z,0.76
2024-01-21T16:43:50.466Z,0.77
2024-01-21T16:46:17.432Z,0.78
2024-01-21T16:48:44.143Z,0.79
2024-01-21T16:51:11.808Z,0.81
2024-01-21T16:53:39.272Z,0.83
2024-01-21T16:56:06.552Z,0.84
2024-01-21T16:58:33.584Z,0.84
2024-01-21T17:01:02.289Z,0.86
2024-01-21T17:03:30.828Z,0.86
2024-01-21T17:05:58.588Z,0.87
2024-01-21T17:08:25.390Z,0.90
2024-01-21T17:11:11.006Z,0.93
2024-01-21T17:13:37.841Z,0.95
2024-01-21T17:16:05.479Z,0.99
2024-01-21T17:18:59.790Z,1.02
2024-01-21T17:21:26.416Z,1.05
2024-01-21T17:23:53.627Z,1.07
2024-01-21T17:26:20.274Z,1.09
2024-01-21T17:28:48.230Z,1.11
2024-01-21T17:31:14.881Z,1.14
2024-01-21T17:33:45.587Z,1.14
2024-01-21T17:36:13.320Z,1.14
2024-01-21T17:38:39.988Z,1.14
2024-01-21T17:41:07.272Z,1.15
2024-01-21T17:43:34.178Z,1.16
2024-01-21T17:46:00.818Z,1.17
2024-01-21T17:48:27.888Z,1.17
2024-01-21T17:50:54.880Z,1.17
2024-01-21T17:53:21.778Z,1.19
2024-01-21T17:55:49.844Z,1.21
2024-01-21T17:58:17.161Z,1.23
2024-01-21T18:00:45.298Z,1.25
2024-01-21T18:03:12.296Z,1.27
2024-01-21T18:05:39.030Z,1.28
2024-01-21T18:08:06.466Z,1.29
2024-01-21T18:10:33.349Z,1.31
2024-01-21T18:13:00.153Z,1.31
2024-01-21T18:15:26.793Z,1.33
2024-01-21T18:17:53.903Z,1.34
2024-01-21T18:20:20.570Z,1.35
2024-01-21T18:22:47.323Z,1.37
2024-01-21T18:25:14.746Z,1.39
2024-01-21T18:27:41.443Z,1.41
2024-01-21T18:30:10.182Z,1.42
2024-01-21T18:32:36.974Z,1.44
2024-01-21T18:35:05.608Z,1.46
2024-01-21T18:37:33.281Z,1.47
2024-01-21T18:39:59.857Z,1.49
2024-01-21T18:42:27.414Z,1.51
2024-01-21T18:44:54.315Z,1.53
2024-01-21T18:47:20.955Z,1.56
2024-01-21T18:49:47.609Z,1.60
2024-01-21T18:52:14.903Z,1.63
2024-01-21T18:54:41.979Z,1.65
2024-01-21T18:57:12.612Z,1.68
2024-01-21T18:59:42.815Z,1.69
2024-01-21T19:02:11.056Z,1.72
2024-01-21T19:04:44.529Z,1.75
2024-01-21T19:07:15.381Z,1.78
2024-01-21T19:09:42.157Z,1.79
2024-01-21T19:12:09.404Z,1.81
2024-01-21T19:14:36.897Z,1.83
2024-01-21T19:17:04.006Z,1.84
2024-01-21T19:19:31.391Z,1.84
2024-01-21T19:21:59.471Z,1.83
2024-01-21T19:24:26.288Z,1.83
2024-01-21T19:26:53.011Z,1.83
2024-01-21T19:29:19.989Z,1.82
2024-01-21T19:31:46.878Z,1.82
2024-01-21T19:34:13.701Z,1.80
2024-01-21T19:36:40.682Z,1.80
2024-01-21T19:39:07.421Z,1.80
2024-01-21T19:41:34.561Z,1.80
2024-01-21T19:44:01.237Z,1.80
2024-01-21T19:46:27.790Z,1.82
2024-01-21T19:48:54.864Z,1.84
2024-01-21T19:51:26.481Z,1.86
2024-01-21T19:53:53.801Z,1.87
2024-01-21T19:56:21.791Z,1.88
2024-01-21T19:58:49.757Z,1.91
2024-01-21T20:01:16.335Z,1.94
2024-01-21T20:03:44.405Z,1.97
2024-01-21T20:06:14.199Z,2.00
2024-01-21T20:08:41.556Z,2.02
2024-01-21T20:11:08.860Z,2.04
2024-01-21T20:13:35.481Z,2.07
2024-01-21T20:16:02.218Z,2.09
2024-01-21T20:18:29.746Z,2.12
2024-01-21T20:20:56.658Z,2.15
2024-01-21T20:23:23.419Z,2.19
2024-01-21T20:25:50.124Z,2.21
2024-01-21T20:28:18.166Z,2.22
2024-01-21T20:30:44.951Z,2.24
2024-01-21T20:33:12.046Z,2.26
2024-01-21T20:35:40.733Z,2.27
2024-01-21T20:38:07.941Z,2.29
2024-01-21T20:40:34.915Z,2.32
2024-01-21T20:43:01.522Z,2.34
2024-01-21T20:45:28.726Z,2.35
2024-01-21T20:47:56.749Z,2.35
2024-01-21T20:50:23.563Z,2.36
2024-01-21T20:52:56.645Z,2.37
2024-01-21T20:55:26.936Z,2.39
2024-01-21T20:57:54.279Z,2.39
2024-01-21T21:00:22.294Z,2.39
2024-01-21T21:02:49.084Z,2.40
2024-01-21T21:05:16.022Z,2.40
2024-01-21T21:07:42.909Z,2.41
2024-01-21T21:10:10.465Z,2.44
2024-01-21T21:12:37.094Z,2.45
2024-01-21T21:15:03.827Z,2.48
2024-01-21T21:17:31.172Z,2.49
2024-01-21T21:19:57.870Z,2.50
2024-01-21T21:22:24.479Z,2.51
2024-01-21T21:24:51.256Z,2.51
2024-01-21T21:27:18.314Z,2.51
2024-01-21T21:29:45.146Z,2.51
2024-01-21T21:32:11.848Z,2.49
2024-01-21T21:34:39.265Z,2.49
2024-01-21T21:37:07.106Z,2.49
2024-01-21T21:39:34.149Z,2.50
2024-01-21T21:42:01.200Z,2.49
2024-01-21T21:44:28.405Z,2.50
2024-01-21T21:46:56.514Z,2.50
2024-01-21T21:49:24.806Z,2.51
2024-01-21T21:51:51.814Z,2.53
2024-01-21T21:54:19.116Z,2.54
2024-01-21T21:56:47.002Z,2.55
2024-01-21T21:59:13.918Z,2.57
2024-01-21T22:01:40.532Z,2.59
2024-01-21T22:04:07.686Z,2.63
2024-01-21T22:06:34.884Z,2.67
2024-01-21T22:09:02.072Z,2.71
2024-01-21T22:11:29.209Z,2.73
2024-01-21T22:13:56.089Z,2.77
2024-01-21T22:16:22.656Z,2.81
2024-01-21T22:18:49.877Z,2.85
2024-01-21T22:21:20.523Z,2.90
2024-01-21T22:23:48.746Z,2.96
2024-01-21T22:26:19.271Z,3.02
2024-01-21T22:28:46.053Z,3.08
2024-01-21T22:31:13.718Z,3.13
2024-01-21T22:33:40.694Z,3.18
2024-01-21T22:36:07.716Z,3.23
2024-01-21T22:38:34.639Z,3.28
2024-01-21T22:41:01.332Z,3.34
2024-01-21T22:43:28.071Z,3.39
2024-01-21T22:45:54.853Z,3.43
2024-01-21T22:48:22.091Z,3.46
2024-01-21T22:50:49.035Z,3.49
2024-01-21T22:53:16.284Z,3.50
2024-01-21T22:55:42.815Z,3.51
2024-01-21T22:58:09.551Z,3.51
2024-01-21T23:00:36.231Z,3.52
2024-01-21T23:03:03.281Z,3.55
2024-01-21T23:05:30.055Z,3.56
2024-01-21T23:07:56.778Z,3.58
2024-01-21T23:10:23.326Z,3.58
2024-01-21T23:12:50.031Z,3.59
2024-01-21T23:15:17.161Z,3.59
2024-01-21T23:17:44.133Z,3.60
2024-01-21T23:20:11.502Z,3.59
2024-01-21T23:22:38.299Z,3.59
2024-01-21T23:25:05.725Z,3.59
2024-01-21T23:27:32.302Z,3.58
2024-01-21T23:29:59.073Z,3.60
2024-01-21T23:32:26.243Z,3.61
2024-01-21T23:34:53.756Z,3.62
2024-01-21T23:37:20.927Z,3.63
2024-01-21T23:39:47.502Z,3.65
2024-01-21T23:42:14.582Z,3.66
2024-01-21T23:44:41.293Z,3.67
2024-01-21T23:47:07.808Z,3.68
2024-01-21T23:49:35.173Z,3.69
2024-01-21T23:52:01.913Z,3.71
2024-01-21T23:54:28.647Z,3.73
2024-01-21T23:56:55.281Z,3.76
2024-01-21T23:59:22.244Z,3.80
